createdAt,value
2022-11-10T00:01:07.914Z,64.00
2022-11-10T00:03:53.956Z,64.10
2022-11-10T00:06:41.263Z,64.10
2022-11-10T00:09:27.001Z,64.10
2022-11-10T00:12:12.868Z,64.10
2022-11-10T00:15:17.333Z,64.20
2022-11-10T00:18:04.452Z,64.10
2022-11-10T00:20:50.699Z,64.10
2022-11-10T00:23:36.764Z,64.10
2022-11-10T00:26:23.447Z,64.20
2022-11-10T00:29:09.498Z,64.20
2022-11-10T00:31:55.344Z,64.20
2022-11-10T00:34:41.292Z,64.10
2022-11-10T00:37:27.003Z,64.10
2022-11-10T00:40:13.067Z,64.20
2022-11-10T00:42:58.903Z,64.10
2022-11-10T00:45:47.170Z,64.10
2022-11-10T00:48:33.033Z,64.10
2022-11-10T00:51:27.771Z,64.00
2022-11-10T00:54:13.783Z,64.00
2022-11-10T00:56:59.653Z,63.90
2022-11-10T00:59:45.360Z,63.80
2022-11-10T01:02:31.359Z,63.70
2022-11-10T01:05:17.294Z,63.80
2022-11-10T01:08:03.178Z,63.90
2022-11-10T01:10:49.041Z,63.90
2022-11-10T01:13:35.783Z,63.90
2022-11-10T01:16:24.412Z,64.00
2022-11-10T01:19:10.213Z,64.00
2022-11-10T01:21:56.130Z,64.00
2022-11-10T01:24:42.079Z,64.00
2022-11-10T01:27:28.524Z,64.00
2022-11-10T01:30:14.834Z,64.00
2022-11-10T01:33:00.624Z,64.00
2022-11-10T01:35:46.498Z,64.00
2022-11-10T01:38:35.326Z,64.00
2022-11-10T01:41:21.424Z,64.10
2022-11-10T01:44:24.327Z,64.10
2022-11-10T01:47:10.512Z,64.10
2022-11-10T01:49:56.459Z,64.10
2022-11-10T01:52:47.198Z,64.10
2022-11-10T01:55:37.452Z,64.10
2022-11-10T01:58:28.232Z,64.10
2022-11-10T02:01:14.628Z,64.10
2022-11-10T02:04:04.286Z,64.10
2022-11-10T02:06:51.403Z,64.10
2022-11-10T02:09:37.566Z,64.20
2022-11-10T02:12:44.696Z,64.10
2022-11-10T02:15:30.906Z,64.10
2022-11-10T02:18:16.853Z,64.10
2022-11-10T02:21:07.586Z,64.20
2022-11-10T02:23:54.678Z,64.10
2022-11-10T02:26:57.799Z,64.20
2022-11-10T02:29:43.566Z,64.10
2022-11-10T02:32:29.477Z,64.20
2022-11-10T02:35:15.424Z,64.20
2022-11-10T02:38:01.294Z,64.20
2022-11-10T02:40:48.710Z,64.30
2022-11-10T02:43:35.347Z,64.20
2022-11-10T02:46:21.623Z,64.30
2022-11-10T02:49:08.214Z,64.20
2022-11-10T02:51:55.048Z,64.20
2022-11-10T02:54:41.179Z,64.30
2022-11-10T02:57:27.001Z,64.30
2022-11-10T03:00:13.295Z,65.00
2022-11-10T03:03:04.134Z,64.40
2022-11-10T03:05:50.310Z,64.30
2022-11-10T03:08:36.233Z,64.40
2022-11-10T03:11:22.214Z,64.40
2022-11-10T03:14:08.108Z,64.40
2022-11-10T03:16:54.083Z,64.30
2022-11-10T03:19:40.183Z,64.30
2022-11-10T03:22:26.047Z,64.30
2022-11-10T03:25:12.563Z,64.30
2022-11-10T03:27:58.745Z,64.30
2022-11-10T03:30:45.054Z,64.40
2022-11-10T03:33:31.212Z,64.30
2022-11-10T03:36:17.133Z,64.40
2022-11-10T03:39:03.002Z,64.40
2022-11-10T03:41:48.823Z,64.40
2022-11-10T03:44:34.721Z,64.40
2022-11-10T03:47:20.816Z,64.40
2022-11-10T03:50:07.320Z,64.40
2022-11-10T03:52:53.191Z,64.40
2022-11-10T03:55:39.157Z,64.40
2022-11-10T03:58:24.974Z,64.40
2022-11-10T04:01:10.960Z,64.40
2022-11-10T04:03:56.956Z,64.30
2022-11-10T04:07:01.656Z,64.30
2022-11-10T04:09:47.608Z,64.30
2022-11-10T04:12:52.119Z,64.30
2022-11-10T04:15:44.423Z,64.10
2022-11-10T04:18:30.459Z,64.10
2022-11-10T04:21:16.366Z,63.90
2022-11-10T04:24:02.398Z,63.90
2022-11-10T04:26:48.860Z,63.90
2022-11-10T04:29:34.860Z,63.80
2022-11-10T04:32:20.837Z,63.80
2022-11-10T04:35:07.075Z,63.80
2022-11-10T04:37:53.237Z,63.80
2022-11-10T04:40:38.902Z,63.80
2022-11-10T04:43:25.106Z,63.80
2022-11-10T04:46:22.948Z,63.80
2022-11-10T04:49:10.538Z,63.90
2022-11-10T04:51:56.400Z,63.90
2022-11-10T04:54:42.478Z,64.00
2022-11-10T04:57:28.414Z,64.10
2022-11-10T05:00:14.838Z,64.10
2022-11-10T05:03:01.571Z,64.10
2022-11-10T05:05:47.852Z,64.20
2022-11-10T05:08:33.695Z,64.20
2022-11-10T05:11:19.792Z,64.20
2022-11-10T05:14:05.742Z,64.30
2022-11-10T05:16:51.671Z,64.30
2022-11-10T05:19:37.611Z,64.30
2022-11-10T05:22:23.736Z,64.40
2022-11-10T05:25:09.833Z,64.40
2022-11-10T05:27:55.849Z,64.50
2022-11-10T05:30:41.696Z,64.40
2022-11-10T05:33:27.648Z,64.50
2022-11-10T05:36:13.575Z,64.50
2022-11-10T05:38:59.399Z,64.40
2022-11-10T05:41:45.232Z,64.50
2022-11-10T05:44:31.261Z,64.40
2022-11-10T05:47:17.069Z,64.50
2022-11-10T05:50:03.598Z,64.40
2022-11-10T05:52:54.341Z,64.50
2022-11-10T05:55:40.444Z,64.40
2022-11-10T05:58:26.275Z,64.50
2022-11-10T06:01:12.193Z,64.40
2022-11-10T06:03:58.136Z,64.40
2022-11-10T06:06:44.114Z,64.60
2022-11-10T06:09:30.026Z,64.70
2022-11-10T06:12:15.897Z,64.80
2022-11-10T06:15:02.953Z,65.50
2022-11-10T06:17:49.014Z,64.80
2022-11-10T06:20:34.928Z,64.60
2022-11-10T06:23:21.432Z,64.60
2022-11-10T06:26:07.183Z,64.60
2022-11-10T06:28:53.040Z,64.50
2022-11-10T06:31:38.886Z,64.60
2022-11-10T06:34:24.649Z,65.30
2022-11-10T06:37:10.656Z,64.60
2022-11-10T06:39:56.565Z,64.40
2022-11-10T06:42:42.571Z,64.70
2022-11-10T06:45:29.500Z,64.80
2022-11-10T06:48:16.163Z,64.70
2022-11-10T06:51:03.037Z,64.60
2022-11-10T06:53:49.195Z,64.70
2022-11-10T06:56:35.338Z,64.70
2022-11-10T06:59:21.331Z,64.70
2022-11-10T07:02:13.705Z,64.70
2022-11-10T07:05:00.158Z,64.70
2022-11-10T07:07:45.835Z,64.70
2022-11-10T07:10:31.989Z,64.70
2022-11-10T07:13:18.157Z,64.70
2022-11-10T07:16:08.368Z,64.70
2022-11-10T07:18:54.336Z,64.60
2022-11-10T07:21:42.336Z,64.60
2022-11-10T07:24:30.610Z,64.60
2022-11-10T07:27:16.894Z,64.60
2022-11-10T07:30:02.902Z,64.70
2022-11-10T07:32:57.406Z,64.70
2022-11-10T07:35:43.313Z,64.70
2022-11-10T07:38:29.110Z,64.80
2022-11-10T07:41:15.111Z,64.80
2022-11-10T07:44:01.314Z,64.70
2022-11-10T07:46:47.372Z,64.70
2022-11-10T07:49:33.748Z,64.70
2022-11-10T07:52:19.762Z,64.70
2022-11-10T07:55:06.763Z,64.60
2022-11-10T07:57:58.437Z,64.60
2022-11-10T08:00:47.060Z,64.60
2022-11-10T08:03:33.289Z,64.60
2022-11-10T08:06:20.744Z,64.60
2022-11-10T08:09:06.805Z,64.60
2022-11-10T08:11:52.666Z,64.60
2022-11-10T08:14:38.668Z,64.50
2022-11-10T08:17:24.574Z,64.60
2022-11-10T08:20:10.863Z,64.50
2022-11-10T08:22:59.422Z,64.60
2022-11-10T08:25:46.939Z,64.80
2022-11-10T08:28:33.076Z,64.80
2022-11-10T08:31:18.953Z,65.00
2022-11-10T08:34:05.961Z,65.00
2022-11-10T08:36:55.159Z,65.10
2022-11-10T08:39:41.260Z,65.20
2022-11-10T08:42:27.334Z,65.00
2022-11-10T08:45:14.585Z,64.80
2022-11-10T08:48:05.710Z,64.50
2022-11-10T08:50:51.942Z,64.30
2022-11-10T08:53:37.982Z,64.10
2022-11-10T08:56:23.798Z,63.90
2022-11-10T08:59:09.882Z,63.70
2022-11-10T09:01:55.806Z,63.40
2022-11-10T09:04:41.899Z,63.50
2022-11-10T09:07:27.639Z,63.30
2022-11-10T09:10:14.598Z,63.10
2022-11-10T09:13:02.033Z,62.80
2022-11-10T09:15:48.119Z,62.70
2022-11-10T09:18:33.992Z,62.50
